sensor_id;sensor_type;location;lat;lon;timestamp;pressure;altitude;pressure_sealevel;temperature;humidity
54920;BME280;63804;53.120;8.764;2023-02-28T00:00:43;103228.84;;;2.50;65.36
54920;BME280;63804;53.120;8.764;2023-02-28T00:03:09;103225.38;;;2.46;65.32
54920;BME280;63804;53.120;8.764;2023-02-28T00:05:35;103229.00;;;2.30;66.27
54920;BME280;63804;53.120;8.764;2023-02-28T00:08:00;103229.09;;;2.21;66.44
54920;BME280;63804;53.120;8.764;2023-02-28T00:10:30;103229.94;;;2.21;66.38
54920;BME280;63804;53.120;8.764;2023-02-28T00:13:00;103227.97;;;2.49;65.72
54920;BME280;63804;53.120;8.764;2023-02-28T00:15:26;103232.28;;;2.58;65.27
54920;BME280;63804;53.120;8.764;2023-02-28T00:17:52;103232.34;;;2.49;65.22
54920;BME280;63804;53.120;8.764;2023-02-28T00:20:18;103229.69;;;2.55;65.40
54920;BME280;63804;53.120;8.764;2023-02-28T00:22:46;103227.22;;;2.33;65.95
54920;BME280;63804;53.120;8.764;2023-02-28T00:25:13;103230.56;;;2.52;65.60
54920;BME280;63804;53.120;8.764;2023-02-28T00:27:39;103223.72;;;2.39;65.68
54920;BME280;63804;53.120;8.764;2023-02-28T00:30:14;103225.59;;;2.20;66.18
54920;BME280;63804;53.120;8.764;2023-02-28T00:32:40;103217.69;;;2.28;66.04
54920;BME280;63804;53.120;8.764;2023-02-28T00:35:07;103213.28;;;2.28;66.04
54920;BME280;63804;53.120;8.764;2023-02-28T00:37:33;103221.19;;;2.24;66.47
54920;BME280;63804;53.120;8.764;2023-02-28T00:39:59;103229.78;;;2.41;66.04
54920;BME280;63804;53.120;8.764;2023-02-28T00:42:24;103232.34;;;2.52;66.27
54920;BME280;63804;53.120;8.764;2023-02-28T00:44:50;103233.25;;;2.48;66.05
54920;BME280;63804;53.120;8.764;2023-02-28T00:47:16;103232.38;;;2.46;66.61
54920;BME280;63804;53.120;8.764;2023-02-28T00:49:41;103221.97;;;2.36;66.44
54920;BME280;63804;53.120;8.764;2023-02-28T00:52:07;103233.41;;;2.28;66.83
54920;BME280;63804;53.120;8.764;2023-02-28T00:54:33;103230.78;;;2.26;67.06
54920;BME280;63804;53.120;8.764;2023-02-28T00:56:59;103231.66;;;2.25;67.71
54920;BME280;63804;53.120;8.764;2023-02-28T00:59:24;103236.81;;;2.39;67.85
54920;BME280;63804;53.120;8.764;2023-02-28T01:01:50;103234.91;;;2.56;66.49
54920;BME280;63804;53.120;8.764;2023-02-28T01:04:16;103234.88;;;2.62;65.83
54920;BME280;63804;53.120;8.764;2023-02-28T01:06:42;103239.22;;;2.63;66.05
54920;BME280;63804;53.120;8.764;2023-02-28T01:09:08;103233.16;;;2.57;66.27
54920;BME280;63804;53.120;8.764;2023-02-28T01:11:37;103232.16;;;2.73;65.73
54920;BME280;63804;53.120;8.764;2023-02-28T01:14:04;103228.59;;;2.79;65.55
54920;BME280;63804;53.120;8.764;2023-02-28T01:16:30;103231.22;;;2.79;65.61
54920;BME280;63804;53.120;8.764;2023-02-28T01:18:56;103238.28;;;2.72;65.55
54920;BME280;63804;53.120;8.764;2023-02-28T01:21:23;103246.16;;;2.69;65.83
54920;BME280;63804;53.120;8.764;2023-02-28T01:23:49;103246.22;;;2.64;65.98
54920;BME280;63804;53.120;8.764;2023-02-28T01:26:18;103245.41;;;2.58;66.10
54920;BME280;63804;53.120;8.764;2023-02-28T01:28:44;103241.16;;;2.42;66.70
54920;BME280;63804;53.120;8.764;2023-02-28T01:31:11;103241.22;;;2.31;67.45
54920;BME280;63804;53.120;8.764;2023-02-28T01:33:37;103246.38;;;2.45;67.26
54920;BME280;63804;53.120;8.764;2023-02-28T01:36:15;103242.75;;;2.62;66.24
54920;BME280;63804;53.120;8.764;2023-02-28T01:38:42;103240.16;;;2.59;66.00
54920;BME280;63804;53.120;8.764;2023-02-28T01:41:08;103234.94;;;2.55;65.94
54920;BME280;63804;53.120;8.764;2023-02-28T01:46:07;103240.34;;;2.36;66.82
54920;BME280;63804;53.120;8.764;2023-02-28T01:48:35;103238.44;;;2.54;66.41
54920;BME280;63804;53.120;8.764;2023-02-28T01:51:15;103234.97;;;2.49;66.34
54920;BME280;63804;53.120;8.764;2023-02-28T01:53:45;103240.19;;;2.55;66.10
54920;BME280;63804;53.120;8.764;2023-02-28T01:56:17;103248.16;;;2.41;66.42
54920;BME280;63804;53.120;8.764;2023-02-28T01:58:49;103247.19;;;2.53;66.37
54920;BME280;63804;53.120;8.764;2023-02-28T02:01:16;103241.06;;;2.55;66.38
54920;BME280;63804;53.120;8.764;2023-02-28T02:03:52;103241.91;;;2.59;66.25
54920;BME280;63804;53.120;8.764;2023-02-28T02:06:23;103240.97;;;2.61;66.30
54920;BME280;63804;53.120;8.764;2023-02-28T02:08:50;103237.47;;;2.66;66.05
54920;BME280;63804;53.120;8.764;2023-02-28T02:11:19;103233.19;;;2.52;66.27
54920;BME280;63804;53.120;8.764;2023-02-28T02:14:10;103236.97;;;2.18;67.46
54920;BME280;63804;53.120;8.764;2023-02-28T02:28:22;103229.09;;;2.18;68.79
54920;BME280;63804;53.120;8.764;2023-02-28T02:36:49;103228.81;;;2.53;67.39
54920;BME280;63804;53.120;8.764;2023-02-28T02:39:32;103225.56;;;2.25;68.13
54920;BME280;63804;53.120;8.764;2023-02-28T02:42:01;103225.66;;;2.09;68.34
54920;BME280;63804;53.120;8.764;2023-02-28T02:47:09;103226.28;;;2.44;67.58
54920;BME280;63804;53.120;8.764;2023-02-28T02:49:36;103226.28;;;2.44;67.54
54920;BME280;63804;53.120;8.764;2023-02-28T02:52:06;103222.84;;;2.37;67.96
54920;BME280;63804;53.120;8.764;2023-02-28T02:54:37;103226.31;;;2.37;67.75
54920;BME280;63804;53.120;8.764;2023-02-28T02:57:07;103226.50;;;2.11;68.74
54920;BME280;63804;53.120;8.764;2023-02-28T02:59:35;103223.88;;;2.16;68.72
54920;BME280;63804;53.120;8.764;2023-02-28T03:02:04;103221.13;;;2.33;67.90
54920;BME280;63804;53.120;8.764;2023-02-28T03:04:34;103227.31;;;2.23;68.01
54920;BME280;63804;53.120;8.764;2023-02-28T03:07:02;103226.38;;;2.31;68.24
54920;BME280;63804;53.120;8.764;2023-02-28T03:09:28;103225.41;;;2.42;67.72
54920;BME280;63804;53.120;8.764;2023-02-28T03:11:55;103218.41;;;2.42;67.92
54920;BME280;63804;53.120;8.764;2023-02-28T03:17:20;103222.97;;;2.19;68.91
54920;BME280;63804;53.120;8.764;2023-02-28T03:22:37;103224.81;;;2.09;68.92
54920;BME280;63804;53.120;8.764;2023-02-28T03:25:11;103226.59;;;2.02;69.29
54920;BME280;63804;53.120;8.764;2023-02-28T03:27:42;103229.13;;;2.13;69.13
54920;BME280;63804;53.120;8.764;2023-02-28T03:30:24;103227.47;;;2.01;68.88
54920;BME280;63804;53.120;8.764;2023-02-28T03:32:57;103229.97;;;2.18;68.50
54920;BME280;63804;53.120;8.764;2023-02-28T03:35:33;103230.81;;;2.25;67.94
54920;BME280;63804;53.120;8.764;2023-02-28T03:38:11;103231.69;;;2.22;67.08
54920;BME280;63804;53.120;8.764;2023-02-28T03:40:42;103235.13;;;2.29;66.99
54920;BME280;63804;53.120;8.764;2023-02-28T03:43:14;103236.88;;;2.27;66.16
54920;BME280;63804;53.120;8.764;2023-02-28T03:45:43;103236.94;;;2.19;65.70
54920;BME280;63804;53.120;8.764;2023-02-28T03:48:19;103234.25;;;2.27;64.69
54920;BME280;63804;53.120;8.764;2023-02-28T03:50:49;103235.16;;;2.23;64.57
54920;BME280;63804;53.120;8.764;2023-02-28T03:53:37;103227.31;;;2.21;62.84
54920;BME280;63804;53.120;8.764;2023-02-28T03:56:08;103236.16;;;2.09;63.27
54920;BME280;63804;53.120;8.764;2023-02-28T03:58:46;103232.59;;;2.18;62.56
54920;BME280;63804;53.120;8.764;2023-02-28T04:01:19;103235.34;;;1.95;63.09
54920;BME280;63804;53.120;8.764;2023-02-28T04:03:46;103243.22;;;1.98;62.86
54920;BME280;63804;53.120;8.764;2023-02-28T04:06:17;103244.94;;;1.99;62.79
54920;BME280;63804;53.120;8.764;2023-02-28T04:08:43;103240.53;;;2.07;62.34
54920;BME280;63804;53.120;8.764;2023-02-28T04:13:56;103243.91;;;2.25;61.22
54920;BME280;63804;53.120;8.764;2023-02-28T04:16:21;103242.94;;;2.35;61.19
54920;BME280;63804;53.120;8.764;2023-02-28T04:18:46;103245.50;;;2.43;61.10
54920;BME280;63804;53.120;8.764;2023-02-28T04:21:12;103251.69;;;2.37;60.62
54920;BME280;63804;53.120;8.764;2023-02-28T04:23:38;103256.19;;;2.21;61.38
54920;BME280;63804;53.120;8.764;2023-02-28T04:26:03;103258.06;;;1.99;61.58
54920;BME280;63804;53.120;8.764;2023-02-28T04:28:29;103257.19;;;1.96;62.06
54920;BME280;63804;53.120;8.764;2023-02-28T04:31:00;103257.16;;;2.00;61.66
54920;BME280;63804;53.120;8.764;2023-02-28T04:33:26;103251.03;;;2.03;61.85
54920;BME280;63804;53.120;8.764;2023-02-28T04:36:01;103255.44;;;1.98;61.96
54920;BME280;63804;53.120;8.764;2023-02-28T04:38:29;103257.22;;;1.97;61.68
54920;BME280;63804;53.120;8.764;2023-02-28T04:40:56;103259.78;;;2.02;61.74
54920;BME280;63804;53.120;8.764;2023-02-28T04:43:22;103258.00;;;2.07;61.62
54920;BME280;63804;53.120;8.764;2023-02-28T04:45:47;103260.53;;;2.24;61.15
54920;BME280;63804;53.120;8.764;2023-02-28T04:48:13;103259.63;;;2.23;60.86
54920;BME280;63804;53.120;8.764;2023-02-28T04:50:38;103245.78;;;2.09;61.35
54920;BME280;63804;53.120;8.764;2023-02-28T04:53:04;103248.44;;;2.00;61.74
54920;BME280;63804;53.120;8.764;2023-02-28T04:55:32;103254.66;;;1.82;62.78
54920;BME280;63804;53.120;8.764;2023-02-28T04:57:57;103255.44;;;1.96;62.09
54920;BME280;63804;53.120;8.764;2023-02-28T05:00:23;103256.25;;;2.04;61.61
54920;BME280;63804;53.120;8.764;2023-02-28T05:02:49;103252.84;;;1.98;61.76
54920;BME280;63804;53.120;8.764;2023-02-28T05:05:14;103258.16;;;1.85;62.39
54920;BME280;63804;53.120;8.764;2023-02-28T05:07:44;103252.81;;;1.99;61.44
54920;BME280;63804;53.120;8.764;2023-02-28T05:10:10;103253.69;;;2.01;60.62
54920;BME280;63804;53.120;8.764;2023-02-28T05:12:36;103259.75;;;2.08;60.16
54920;BME280;63804;53.120;8.764;2023-02-28T05:15:01;103255.34;;;2.14;59.64
54920;BME280;63804;53.120;8.764;2023-02-28T05:17:28;103253.69;;;2.01;60.49
54920;BME280;63804;53.120;8.764;2023-02-28T05:19:53;103255.53;;;1.85;61.07
54920;BME280;63804;53.120;8.764;2023-02-28T05:22:18;103255.47;;;1.93;60.84
54920;BME280;63804;53.120;8.764;2023-02-28T05:24:44;103255.41;;;2.04;60.18
54920;BME280;63804;53.120;8.764;2023-02-28T05:27:10;103255.38;;;2.10;60.28
54920;BME280;63804;53.120;8.764;2023-02-28T05:29:35;103267.75;;;1.89;60.75
54920;BME280;63804;53.120;8.764;2023-02-28T05:32:09;103261.59;;;1.94;61.02
54920;BME280;63804;53.120;8.764;2023-02-28T05:34:36;103269.47;;;1.94;60.84
54920;BME280;63804;53.120;8.764;2023-02-28T05:37:01;103269.41;;;2.01;60.79
54920;BME280;63804;53.120;8.764;2023-02-28T05:39:27;103264.25;;;1.87;61.17
54920;BME280;63804;53.120;8.764;2023-02-28T05:41:52;103257.25;;;1.88;60.63
54920;BME280;63804;53.120;8.764;2023-02-28T05:44:18;103264.25;;;1.84;60.77
54920;BME280;63804;53.120;8.764;2023-02-28T05:46:43;103263.44;;;1.78;60.68
54920;BME280;63804;53.120;8.764;2023-02-28T05:49:09;103266.13;;;1.53;62.04
54920;BME280;63804;53.120;8.764;2023-02-28T05:51:34;103264.41;;;1.49;62.43
54920;BME280;63804;53.120;8.764;2023-02-28T05:54:02;103256.59;;;1.35;62.86
54920;BME280;63804;53.120;8.764;2023-02-28T05:56:27;103273.16;;;1.48;62.74
54920;BME280;63804;53.120;8.764;2023-02-28T05:58:53;103273.19;;;1.33;62.91
54920;BME280;63804;53.120;8.764;2023-02-28T06:03:56;103280.22;;;1.11;64.44
54920;BME280;63804;53.120;8.764;2023-02-28T06:06:21;103285.41;;;1.31;63.55
54920;BME280;63804;53.120;8.764;2023-02-28T06:08:47;103281.91;;;1.36;63.28
54920;BME280;63804;53.120;8.764;2023-02-28T06:11:13;103294.16;;;1.19;63.74
54920;BME280;63804;53.120;8.764;2023-02-28T06:13:39;103289.84;;;0.75;65.62
54920;BME280;63804;53.120;8.764;2023-02-28T06:16:04;103293.31;;;0.66;65.90
54920;BME280;63804;53.120;8.764;2023-02-28T06:18:30;103297.72;;;0.60;66.21
54920;BME280;63804;53.120;8.764;2023-02-28T06:20:56;103303.78;;;0.50;66.65
54920;BME280;63804;53.120;8.764;2023-02-28T06:23:22;103296.78;;;0.44;66.90
54920;BME280;63804;53.120;8.764;2023-02-28T06:25:48;103302.03;;;0.44;66.78
54920;BME280;63804;53.120;8.764;2023-02-28T06:28:14;103305.53;;;0.44;67.05
54920;BME280;63804;53.120;8.764;2023-02-28T06:30:40;103297.66;;;0.35;67.34
54920;BME280;63804;53.120;8.764;2023-02-28T06:33:06;103304.66;;;0.38;67.37
54920;BME280;63804;53.120;8.764;2023-02-28T06:35:31;103303.75;;;0.28;67.72
54920;BME280;63804;53.120;8.764;2023-02-28T06:37:57;103309.03;;;0.50;67.36
54920;BME280;63804;53.120;8.764;2023-02-28T06:40:22;103311.63;;;0.45;67.22
54920;BME280;63804;53.120;8.764;2023-02-28T06:42:48;103314.22;;;0.30;67.63
54920;BME280;63804;53.120;8.764;2023-02-28T06:45:14;103311.56;;;0.19;68.36
54920;BME280;63804;53.120;8.764;2023-02-28T06:47:40;103319.38;;;0.13;68.74
54920;BME280;63804;53.120;8.764;2023-02-28T06:50:10;103320.31;;;0.26;68.46
54920;BME280;63804;53.120;8.764;2023-02-28T06:52:36;103326.44;;;0.37;67.70
54920;BME280;63804;53.120;8.764;2023-02-28T06:55:04;103317.75;;;0.49;67.67
54920;BME280;63804;53.120;8.764;2023-02-28T06:57:31;103312.50;;;0.46;67.76
54920;BME280;63804;53.120;8.764;2023-02-28T06:59:58;103313.38;;;0.41;68.17
54920;BME280;63804;53.120;8.764;2023-02-28T07:02:25;103315.13;;;0.49;67.76
54920;BME280;63804;53.120;8.764;2023-02-28T07:04:51;103326.41;;;0.35;68.76
54920;BME280;63804;53.120;8.764;2023-02-28T07:07:16;103320.34;;;0.46;68.29
54920;BME280;63804;53.120;8.764;2023-02-28T07:09:42;103331.72;;;0.60;67.36
54920;BME280;63804;53.120;8.764;2023-02-28T07:12:07;103327.34;;;0.66;67.12
54920;BME280;63804;53.120;8.764;2023-02-28T07:14:32;103330.84;;;0.87;65.97
54920;BME280;63804;53.120;8.764;2023-02-28T07:16:58;103328.22;;;1.10;64.79
54920;BME280;63804;53.120;8.764;2023-02-28T07:19:24;103329.09;;;1.21;64.81
54920;BME280;63804;53.120;8.764;2023-02-28T07:21:50;103336.91;;;1.20;64.93
54920;BME280;63804;53.120;8.764;2023-02-28T07:24:15;103325.59;;;1.10;64.95
54920;BME280;63804;53.120;8.764;2023-02-28T07:26:43;103338.69;;;1.11;64.99
54920;BME280;63804;53.120;8.764;2023-02-28T07:29:08;103343.03;;;1.18;64.49
54920;BME280;63804;53.120;8.764;2023-02-28T07:31:34;103334.28;;;1.30;63.82
54920;BME280;63804;53.120;8.764;2023-02-28T07:33:59;103330.78;;;1.44;63.02
54920;BME280;63804;53.120;8.764;2023-02-28T07:36:25;103336.00;;;1.51;62.62
54920;BME280;63804;53.120;8.764;2023-02-28T07:38:50;103337.75;;;1.55;62.62
54920;BME280;63804;53.120;8.764;2023-02-28T07:41:18;103336.84;;;1.55;62.33
54920;BME280;63804;53.120;8.764;2023-02-28T07:43:44;103336.84;;;1.55;62.26
54920;BME280;63804;53.120;8.764;2023-02-28T07:46:12;103339.47;;;1.61;62.13
54920;BME280;63804;53.120;8.764;2023-02-28T07:48:40;103336.81;;;1.62;61.88
54920;BME280;63804;53.120;8.764;2023-02-28T07:51:05;103335.91;;;1.77;61.56
54920;BME280;63804;53.120;8.764;2023-02-28T07:53:31;103337.63;;;1.81;61.38
54920;BME280;63804;53.120;8.764;2023-02-28T07:55:58;103330.63;;;1.88;61.12
54920;BME280;63804;53.120;8.764;2023-02-28T07:58:24;103338.47;;;1.92;61.11
54920;BME280;63804;53.120;8.764;2023-02-28T08:00:50;103343.66;;;2.06;60.85
54920;BME280;63804;53.120;8.764;2023-02-28T08:03:17;103337.53;;;2.07;60.65
54920;BME280;63804;53.120;8.764;2023-02-28T08:05:43;103338.41;;;2.09;60.58
54920;BME280;63804;53.120;8.764;2023-02-28T08:08:08;103337.50;;;2.13;60.57
54920;BME280;63804;53.120;8.764;2023-02-28T08:10:34;103344.50;;;2.13;60.58
54920;BME280;63804;53.120;8.764;2023-02-28T08:13:00;103344.47;;;2.19;60.21
54920;BME280;63804;53.120;8.764;2023-02-28T08:15:25;103339.22;;;2.24;59.98
54920;BME280;63804;53.120;8.764;2023-02-28T08:17:51;103346.16;;;2.29;59.52
54920;BME280;63804;53.120;8.764;2023-02-28T08:20:16;103341.78;;;2.33;59.35
54920;BME280;63804;53.120;8.764;2023-02-28T08:22:42;103343.53;;;2.35;59.06
54920;BME280;63804;53.120;8.764;2023-02-28T08:25:08;103344.38;;;2.37;59.19
54920;BME280;63804;53.120;8.764;2023-02-28T08:27:34;103348.72;;;2.43;58.86
54920;BME280;63804;53.120;8.764;2023-02-28T08:30:00;103347.81;;;2.47;58.69
54920;BME280;63804;53.120;8.764;2023-02-28T08:32:25;103346.03;;;2.52;58.38
54920;BME280;63804;53.120;8.764;2023-02-28T08:34:51;103350.38;;;2.58;58.30
54920;BME280;63804;53.120;8.764;2023-02-28T08:37:16;103349.44;;;2.63;58.24
54920;BME280;63804;53.120;8.764;2023-02-28T08:39:42;103350.34;;;2.62;57.81
54920;BME280;63804;53.120;8.764;2023-02-28T08:42:07;103348.56;;;2.61;58.15
54920;BME280;63804;53.120;8.764;2023-02-28T08:44:33;103352.97;;;2.62;58.06
54920;BME280;63804;53.120;8.764;2023-02-28T08:46:58;103348.53;;;2.69;57.74
54920;BME280;63804;53.120;8.764;2023-02-28T08:49:23;103354.63;;;2.74;57.18
54920;BME280;63804;53.120;8.764;2023-02-28T08:51:49;103344.97;;;2.78;56.30
54920;BME280;63804;53.120;8.764;2023-02-28T08:54:14;103346.72;;;2.76;56.88
54920;BME280;63804;53.120;8.764;2023-02-28T08:56:45;103347.53;;;2.84;56.21
54920;BME280;63804;53.120;8.764;2023-02-28T08:59:12;103351.88;;;2.89;56.06
54920;BME280;63804;53.120;8.764;2023-02-28T09:01:38;103351.78;;;2.99;55.61
54920;BME280;63804;53.120;8.764;2023-02-28T09:04:03;103348.25;;;3.06;55.06
54920;BME280;63804;53.120;8.764;2023-02-28T09:06:29;103347.38;;;3.05;55.27
54920;BME280;63804;53.120;8.764;2023-02-28T09:08:58;103349.97;;;3.11;55.04
54920;BME280;63804;53.120;8.764;2023-02-28T09:11:24;103347.34;;;3.08;54.71
54920;BME280;63804;53.120;8.764;2023-02-28T09:13:57;103350.75;;;3.20;54.76
54920;BME280;63804;53.120;8.764;2023-02-28T09:16:24;103351.63;;;3.20;54.46
54920;BME280;63804;53.120;8.764;2023-02-28T09:18:49;103356.84;;;3.23;54.37
54920;BME280;63804;53.120;8.764;2023-02-28T09:21:17;103348.91;;;3.26;54.04
54920;BME280;63804;53.120;8.764;2023-02-28T09:23:44;103357.69;;;3.25;53.74
54920;BME280;63804;53.120;8.764;2023-02-28T09:26:21;103351.53;;;3.31;53.20
54920;BME280;63804;53.120;8.764;2023-02-28T09:28:47;103341.84;;;3.36;53.24
54920;BME280;63804;53.120;8.764;2023-02-28T09:31:15;103341.69;;;3.50;53.13
54920;BME280;63804;53.120;8.764;2023-02-28T09:33:42;103342.53;;;3.52;52.38
54920;BME280;63804;53.120;8.764;2023-02-28T09:36:07;103343.41;;;3.52;51.72
54920;BME280;63804;53.120;8.764;2023-02-28T09:38:33;103344.25;;;3.56;51.21
54920;BME280;63804;53.120;8.764;2023-02-28T09:41:11;103339.84;;;3.58;50.96
54920;BME280;63804;53.120;8.764;2023-02-28T09:43:40;103348.59;;;3.58;51.04
54920;BME280;63804;53.120;8.764;2023-02-28T09:46:14;103352.91;;;3.64;50.23
54920;BME280;63804;53.120;8.764;2023-02-28T09:48:45;103351.97;;;3.70;50.03
54920;BME280;63804;53.120;8.764;2023-02-28T09:51:34;103353.69;;;3.72;48.80
54920;BME280;63804;53.120;8.764;2023-02-28T09:54:02;103353.69;;;3.74;49.52
54920;BME280;63804;53.120;8.764;2023-02-28T09:56:40;103353.59;;;3.81;47.88
54920;BME280;63804;53.120;8.764;2023-02-28T10:06:51;103359.59;;;3.96;46.88
54920;BME280;63804;53.120;8.764;2023-02-28T10:09:22;103359.72;;;3.82;46.99
54920;BME280;63804;53.120;8.764;2023-02-28T10:11:52;103363.22;;;3.82;47.05
54920;BME280;63804;53.120;8.764;2023-02-28T10:14:21;103354.38;;;3.90;46.95
54920;BME280;63804;53.120;8.764;2023-02-28T10:16:52;103359.56;;;3.97;46.47
54920;BME280;63804;53.120;8.764;2023-02-28T10:19:40;103365.72;;;3.96;46.23
54920;BME280;63804;53.120;8.764;2023-02-28T10:22:14;103370.03;;;4.03;46.30
54920;BME280;63804;53.120;8.764;2023-02-28T10:24:45;103366.38;;;4.15;46.40
54920;BME280;63804;53.120;8.764;2023-02-28T10:27:22;103358.34;;;4.26;46.24
54920;BME280;63804;53.120;8.764;2023-02-28T10:29:53;103368.06;;;4.19;46.11
54920;BME280;63804;53.120;8.764;2023-02-28T10:32:25;103365.44;;;4.19;45.86
54920;BME280;63804;53.120;8.764;2023-02-28T10:35:16;103362.81;;;4.18;44.97
54920;BME280;63804;53.120;8.764;2023-02-28T10:37:45;103364.59;;;4.16;45.64
54920;BME280;63804;53.120;8.764;2023-02-28T10:40:34;103359.28;;;4.20;45.01
54920;BME280;63804;53.120;8.764;2023-02-28T10:43:05;103360.13;;;4.21;45.93
54920;BME280;63804;53.120;8.764;2023-02-28T10:45:32;103354.91;;;4.18;45.79
54920;BME280;63804;53.120;8.764;2023-02-28T10:48:05;103351.31;;;4.25;45.49
54920;BME280;63804;53.120;8.764;2023-02-28T10:50:51;103350.31;;;4.35;45.21
54920;BME280;63804;53.120;8.764;2023-02-28T10:58:57;103348.28;;;4.54;45.25
54920;BME280;63804;53.120;8.764;2023-02-28T11:03:55;103342.22;;;4.49;45.11
54920;BME280;63804;53.120;8.764;2023-02-28T11:06:29;103350.75;;;4.63;44.97
54920;BME280;63804;53.120;8.764;2023-02-28T11:08:57;103344.63;;;4.63;44.62
54920;BME280;63804;53.120;8.764;2023-02-28T11:11:25;103338.63;;;4.54;44.51
54920;BME280;63804;53.120;8.764;2023-02-28T11:13:54;103344.78;;;4.52;44.80
54920;BME280;63804;53.120;8.764;2023-02-28T11:16:21;103342.09;;;4.56;44.11
54920;BME280;63804;53.120;8.764;2023-02-28T11:18:55;103336.81;;;4.58;44.45
54920;BME280;63804;53.120;8.764;2023-02-28T11:21:24;103342.91;;;4.60;44.47
54920;BME280;63804;53.120;8.764;2023-02-28T11:23:56;103331.59;;;4.55;45.14
54920;BME280;63804;53.120;8.764;2023-02-28T11:26:46;103339.25;;;4.70;44.32
54920;BME280;63804;53.120;8.764;2023-02-28T11:29:25;103337.31;;;4.81;43.49
54920;BME280;63804;53.120;8.764;2023-02-28T11:32:05;103341.84;;;4.73;43.48
54920;BME280;63804;53.120;8.764;2023-02-28T11:34:37;103341.78;;;4.75;44.39
54920;BME280;63804;53.120;8.764;2023-02-28T11:37:03;103328.59;;;4.78;44.04
54920;BME280;63804;53.120;8.764;2023-02-28T11:39:34;103325.09;;;4.77;43.92
54920;BME280;63804;53.120;8.764;2023-02-28T11:45:11;103330.44;;;4.73;43.79
54920;BME280;63804;53.120;8.764;2023-02-28T11:48:03;103330.31;;;4.79;43.53
54920;BME280;63804;53.120;8.764;2023-02-28T11:50:42;103329.41;;;4.81;43.57
54920;BME280;63804;53.120;8.764;2023-02-28T11:55:56;103325.94;;;4.78;42.88
54920;BME280;63804;53.120;8.764;2023-02-28T12:01:33;103304.88;;;4.79;42.96
54920;BME280;63804;53.120;8.764;2023-02-28T12:04:24;103308.28;;;4.84;42.49
54920;BME280;63804;53.120;8.764;2023-02-28T12:15:36;103295.84;;;4.93;42.63
54920;BME280;63804;53.120;8.764;2023-02-28T12:26:34;103285.28;;;4.96;41.72
54920;BME280;63804;53.120;8.764;2023-02-28T12:31:36;103273.06;;;4.92;41.54
54920;BME280;63804;53.120;8.764;2023-02-28T12:34:08;103262.47;;;4.93;42.21
54920;BME280;63804;53.120;8.764;2023-02-28T12:36:36;103273.88;;;4.95;42.71
54920;BME280;63804;53.120;8.764;2023-02-28T12:39:12;103272.16;;;4.93;42.08
54920;BME280;63804;53.120;8.764;2023-02-28T12:44:12;103258.06;;;4.95;42.94
54920;BME280;63804;53.120;8.764;2023-02-28T12:46:47;103256.34;;;4.93;43.21
54920;BME280;63804;53.120;8.764;2023-02-28T12:49:31;103259.88;;;4.92;43.39
54920;BME280;63804;53.120;8.764;2023-02-28T12:52:00;103252.00;;;4.90;43.20
54920;BME280;63804;53.120;8.764;2023-02-28T12:59:41;103244.03;;;4.95;43.61
54920;BME280;63804;53.120;8.764;2023-02-28T13:07:49;103234.38;;;4.94;43.95
54920;BME280;63804;53.120;8.764;2023-02-28T13:10:18;103229.03;;;4.98;43.77
54920;BME280;63804;53.120;8.764;2023-02-28T13:12:52;103231.59;;;5.01;43.72
54920;BME280;63804;53.120;8.764;2023-02-28T13:15:26;103230.63;;;5.07;43.59
54920;BME280;63804;53.120;8.764;2023-02-28T13:17:56;103232.25;;;5.13;44.21
54920;BME280;63804;53.120;8.764;2023-02-28T13:20:25;103230.63;;;5.07;43.66
54920;BME280;63804;53.120;8.764;2023-02-28T13:22:53;103222.47;;;5.19;44.34
54920;BME280;63804;53.120;8.764;2023-02-28T13:27:51;103230.44;;;5.18;43.00
54920;BME280;63804;53.120;8.764;2023-02-28T13:36:45;103216.50;;;5.09;41.85
54920;BME280;63804;53.120;8.764;2023-02-28T13:38:50;103219.22;;;5.05;42.40
54920;BME280;63804;53.120;8.764;2023-02-28T14:05:34;103197.59;;;5.32;41.01
54920;BME280;63804;53.120;8.764;2023-02-28T14:10:45;103186.13;;;5.35;40.91
54920;BME280;63804;53.120;8.764;2023-02-28T14:16:13;103187.81;;;5.39;40.41
54920;BME280;63804;53.120;8.764;2023-02-28T14:18:50;103193.28;;;5.30;41.29
54920;BME280;63804;53.120;8.764;2023-02-28T14:21:33;103192.41;;;5.29;41.46
54920;BME280;63804;53.120;8.764;2023-02-28T14:32:35;103202.00;;;5.32;40.66
54920;BME280;63804;53.120;8.764;2023-02-28T14:37:50;103196.69;;;5.35;41.21
54920;BME280;63804;53.120;8.764;2023-02-28T14:40:29;103199.31;;;5.35;41.25
54920;BME280;63804;53.120;8.764;2023-02-28T14:43:00;103194.84;;;5.39;41.53
54920;BME280;63804;53.120;8.764;2023-02-28T14:45:29;103200.00;;;5.45;41.54
54920;BME280;63804;53.120;8.764;2023-02-28T14:47:56;103195.59;;;5.44;41.42
54920;BME280;63804;53.120;8.764;2023-02-28T14:50:49;103200.06;;;5.42;40.89
54920;BME280;63804;53.120;8.764;2023-02-28T14:53:18;103194.81;;;5.40;41.90
54920;BME280;63804;53.120;8.764;2023-02-28T14:55:46;103196.56;;;5.40;41.72
54920;BME280;63804;53.120;8.764;2023-02-28T14:58:24;103206.94;;;5.49;41.40
54920;BME280;63804;53.120;8.764;2023-02-28T15:00:52;103204.25;;;5.50;41.84
54920;BME280;63804;53.120;8.764;2023-02-28T15:05:56;103197.31;;;5.46;41.97
54920;BME280;63804;53.120;8.764;2023-02-28T15:08:24;103200.88;;;5.44;41.61
54920;BME280;63804;53.120;8.764;2023-02-28T15:10:59;103205.34;;;5.40;41.40
54920;BME280;63804;53.120;8.764;2023-02-28T15:16:02;103198.41;;;5.36;41.29
54920;BME280;63804;53.120;8.764;2023-02-28T15:18:35;103205.44;;;5.37;40.99
54920;BME280;63804;53.120;8.764;2023-02-28T15:21:07;103206.31;;;5.38;41.37
54920;BME280;63804;53.120;8.764;2023-02-28T15:23:37;103212.34;;;5.43;41.17
54920;BME280;63804;53.120;8.764;2023-02-28T15:26:04;103208.03;;;5.39;40.51
54920;BME280;63804;53.120;8.764;2023-02-28T15:28:30;103200.97;;;5.39;40.80
54920;BME280;63804;53.120;8.764;2023-02-28T15:31:02;103194.84;;;5.39;40.96
54920;BME280;63804;53.120;8.764;2023-02-28T15:33:34;103208.94;;;5.38;40.73
54920;BME280;63804;53.120;8.764;2023-02-28T15:36:26;103198.50;;;5.33;40.60